Time,TemperatureF,DewpointF,PressureIn,WindDirection,WindDirectionDegrees,WindSpeedMPH,WindSpeedGustMPH,Humidity,HourlyPrecipIn,Conditions,Clouds,dailyrainin,SoftwareType,DateUTC
2013-09-17 00:03:00,63.4,61.0,29.61,SW,214,0.0,0.0,92,0.00,,,0.00,weatherlink.com 1.10,2013-09-17 07:03:00,
2013-09-17 00:18:00,63.2,61.0,29.61,SW,214,0.0,0.0,92,0.00,,,0.00,weatherlink.com 1.10,2013-09-17 07:18:00,
2013-09-17 00:33:00,63.0,61.0,29.61,SW,214,0.0,1.0,93,0.00,,,0.00,weatherlink.com 1.10,2013-09-17 07:33:00,
2013-09-17 00:48:00,62.9,61.0,29.61,SW,214,0.0,0.0,93,0.00,,,0.00,weatherlink.com 1.10,2013-09-17 07:48:00,
2013-09-17 01:03:00,62.6,61.0,29.61,SW,214,0.0,1.0,93,0.00,,,0.00,weatherlink.com 1.10,2013-09-17 08:03:00,
2013-09-17 01:18:00,62.3,61.0,29.61,SW,214,0.0,0.0,94,0.00,,,0.00,weatherlink.com 1.10,2013-09-17 08:18:00,
2013-09-17 01:33:00,62.1,60.0,29.61,SW,214,0.0,0.0,94,0.00,,,0.00,weatherlink.com 1.10,2013-09-17 08:33:00,
2013-09-17 01:48:00,62.0,60.0,29.60,SW,214,0.0,0.0,94,0.00,,,0.00,weatherlink.com 1.10,2013-09-17 08:48:00,
2013-09-17 02:03:00,61.8,60.0,29.60,SW,214,0.0,1.0,94,0.00,,,0.00,weatherlink.com 1.10,2013-09-17 09:03:00,
2013-09-17 02:18:00,61.6,60.0,29.60,SW,214,0.0,0.0,94,0.00,,,0.00,weatherlink.com 1.10,2013-09-17 09:18:00,
2013-09-17 02:33:00,61.4,60.0,29.60,SW,214,0.0,0.0,95,0.00,,,0.00,weatherlink.com 1.10,2013-09-17 09:33:00,
2013-09-17 02:48:00,61.3,60.0,29.60,SW,214,0.0,0.0,95,0.00,,,0.00,weatherlink.com 1.10,2013-09-17 09:48:00,
2013-09-17 03:03:00,61.0,60.0,29.60,SW,214,0.0,0.0,95,0.00,,,0.00,weatherlink.com 1.10,2013-09-17 10:03:00,
2013-09-17 03:18:00,60.8,59.0,29.60,SW,214,0.0,0.0,95,0.00,,,0.00,weatherlink.com 1.10,2013-09-17 10:18:00,
2013-09-17 03:33:00,60.8,60.0,29.60,SW,214,0.0,1.0,96,0.00,,,0.00,weatherlink.com 1.10,2013-09-17 10:33:00,
2013-09-17 03:48:00,60.5,59.0,29.60,SW,214,0.0,0.0,95,0.00,,,0.00,weatherlink.com 1.10,2013-09-17 10:48:00,
2013-09-17 04:03:00,60.3,59.0,29.60,SW,214,0.0,0.0,96,0.00,,,0.00,weatherlink.com 1.10,2013-09-17 11:03:00,
2013-09-17 04:18:00,60.1,59.0,29.60,SW,214,0.0,0.0,96,0.00,,,0.00,weatherlink.com 1.10,2013-09-17 11:18:00,
2013-09-17 04:33:00,60.0,59.0,29.61,SW,214,0.0,0.0,96,0.00,,,0.00,weatherlink.com 1.10,2013-09-17 11:33:00,
2013-09-17 04:48:00,60.0,59.0,29.61,SW,214,0.0,0.0,96,0.00,,,0.00,weatherlink.com 1.10,2013-09-17 11:48:00,
2013-09-17 05:03:00,59.8,59.0,29.60,SW,214,0.0,0.0,96,0.00,,,0.00,weatherlink.com 1.10,2013-09-17 12:03:00,
2013-09-17 05:18:00,59.7,59.0,29.61,SW,214,0.0,1.0,97,0.00,,,0.00,weatherlink.com 1.10,2013-09-17 12:18:00,
2013-09-17 05:33:00,59.7,59.0,29.61,SW,214,0.0,0.0,97,0.00,,,0.00,weatherlink.com 1.10,2013-09-17 12:33:00,
2013-09-17 05:48:00,59.5,59.0,29.61,SW,214,0.0,0.0,97,0.00,,,0.00,weatherlink.com 1.10,2013-09-17 12:48:00,
2013-09-17 06:03:00,59.4,59.0,29.62,SW,214,0.0,0.0,97,0.00,,,0.00,weatherlink.com 1.10,2013-09-17 13:03:00,
2013-09-17 06:18:00,59.3,59.0,29.62,SW,214,0.0,0.0,97,0.00,,,0.00,weatherlink.com 1.10,2013-09-17 13:18:00,
2013-09-17 06:33:00,59.4,59.0,29.62,SW,214,0.0,0.0,97,0.00,,,0.00,weatherlink.com 1.10,2013-09-17 13:33:00,
2013-09-17 06:48:00,59.7,59.0,29.63,SW,215,0.0,0.0,98,0.00,,,0.00,weatherlink.com 1.10,2013-09-17 13:48:00,
2013-09-17 07:03:00,61.5,61.0,29.63,SW,215,0.0,0.0,98,0.00,,,0.00,weatherlink.com 1.10,2013-09-17 14:03:00,
2013-09-17 07:18:00,64.7,64.0,29.63,SW,215,0.0,0.0,99,0.00,,,0.00,weatherlink.com 1.10,2013-09-17 14:18:00,
2013-09-17 07:33:00,68.1,63.0,29.63,SW,215,0.0,1.0,83,0.00,,,0.00,weatherlink.com 1.10,2013-09-17 14:33:00,
2013-09-17 07:48:00,69.4,63.0,29.63,SW,215,0.0,2.0,80,0.00,,,0.00,weatherlink.com 1.10,2013-09-17 14:48:00,
2013-09-17 08:03:00,71.8,64.0,29.63,SW,215,1.0,1.0,77,0.00,,,0.00,weatherlink.com 1.10,2013-09-17 15:03:00,
2013-09-17 08:18:00,74.2,64.0,29.63,SW,215,1.0,1.0,70,0.00,,,0.00,weatherlink.com 1.10,2013-09-17 15:18:00,
2013-09-17 08:34:00,76.5,64.0,29.62,SW,215,0.0,1.0,65,0.00,,,0.00,weatherlink.com 1.10,2013-09-17 15:34:00,
2013-09-17 08:49:00,78.0,63.0,29.62,SW,215,0.0,2.0,61,0.00,,,0.00,weatherlink.com 1.10,2013-09-17 15:49:00,
2013-09-17 09:04:00,79.7,65.0,29.62,SW,215,0.0,1.0,62,0.00,,,0.00,weatherlink.com 1.10,2013-09-17 16:04:00,
2013-09-17 09:19:00,82.1,66.0,29.61,SSE,160,1.0,4.0,59,0.00,,,0.00,weatherlink.com 1.10,2013-09-17 16:19:00,
2013-09-17 09:34:00,84.0,65.0,29.61,SE,138,3.0,5.0,53,0.00,,,0.00,weatherlink.com 1.10,2013-09-17 16:34:00,
2013-09-17 09:49:00,85.1,65.0,29.61,SE,142,2.0,5.0,51,0.00,,,0.00,weatherlink.com 1.10,2013-09-17 16:49:00,
2013-09-17 10:04:00,85.0,64.0,29.60,South,188,2.0,5.0,50,0.00,,,0.00,weatherlink.com 1.10,2013-09-17 17:04:00,
2013-09-17 10:19:00,85.9,66.0,29.60,SSE,155,0.0,6.0,51,0.00,,,0.00,weatherlink.com 1.10,2013-09-17 17:19:00,
2013-09-17 10:34:00,85.8,64.0,29.60,SSW,211,3.0,6.0,48,0.00,,,0.00,weatherlink.com 1.10,2013-09-17 17:34:00,
2013-09-17 10:49:00,86.3,65.0,29.59,ESE,106,5.0,9.0,49,0.00,,,0.00,weatherlink.com 1.10,2013-09-17 17:49:00,
2013-09-17 11:04:00,86.7,65.0,29.58,ESE,103,1.0,8.0,49,0.00,,,0.00,weatherlink.com 1.10,2013-09-17 18:04:00,
2013-09-17 11:19:00,87.1,65.0,29.57,East,101,6.0,10.0,48,0.00,,,0.00,weatherlink.com 1.10,2013-09-17 18:19:00,
2013-09-17 11:34:00,87.8,67.0,29.56,SE,132,6.0,10.0,51,0.00,,,0.00,weatherlink.com 1.10,2013-09-17 18:34:00,
2013-09-17 12:04:00,89.1,65.0,29.54,SSE,161,3.0,10.0,45,0.00,,,0.00,weatherlink.com 1.10,2013-09-17 19:04:00,
2013-09-17 12:19:00,89.4,65.0,29.53,East,94,7.0,10.0,45,0.00,,,0.00,weatherlink.com 1.10,2013-09-17 19:19:00,
2013-09-17 12:34:00,89.8,64.0,29.52,SE,126,3.0,9.0,43,0.00,,,0.00,weatherlink.com 1.10,2013-09-17 19:34:00,
2013-09-17 12:49:00,90.1,65.0,29.51,ESE,109,2.0,7.0,44,0.00,,,0.00,weatherlink.com 1.10,2013-09-17 19:49:00,
2013-09-17 13:04:00,90.6,64.0,29.50,SE,142,4.0,9.0,42,0.00,,,0.00,weatherlink.com 1.10,2013-09-17 20:04:00,
2013-09-17 13:19:00,91.0,66.0,29.49,ESE,113,5.0,14.0,43,0.00,,,0.00,weatherlink.com 1.10,2013-09-17 20:19:00,
2013-09-17 13:34:00,91.1,65.0,29.49,ENE,61,7.0,10.0,42,0.00,,,0.00,weatherlink.com 1.10,2013-09-17 20:34:00,
2013-09-17 13:50:00,91.7,64.0,29.49,South,173,1.0,12.0,40,0.00,,,0.00,weatherlink.com 1.10,2013-09-17 20:50:00,
2013-09-17 14:05:00,92.3,64.0,29.48,ESE,115,1.0,8.0,39,0.00,,,0.00,weatherlink.com 1.10,2013-09-17 21:05:00,
2013-09-17 14:20:00,92.9,64.0,29.47,SW,215,3.0,10.0,38,0.00,,,0.00,weatherlink.com 1.10,2013-09-17 21:20:00,
2013-09-17 14:35:00,93.3,63.0,29.47,SE,142,2.0,10.0,37,0.00,,,0.00,weatherlink.com 1.10,2013-09-17 21:35:00,
2013-09-17 15:05:00,93.2,59.0,29.46,WSW,248,4.0,10.0,32,0.00,,,0.00,weatherlink.com 1.10,2013-09-17 22:05:00,
2013-09-17 15:20:00,92.3,58.0,29.46,ESE,117,8.0,8.0,31,0.00,,,0.00,weatherlink.com 1.10,2013-09-17 22:20:00,
2013-09-17 15:35:00,93.2,61.0,29.45,SE,126,4.0,8.0,34,0.00,,,0.00,weatherlink.com 1.10,2013-09-17 22:35:00,
2013-09-17 15:50:00,93.6,58.0,29.45,SSW,211,7.0,10.0,30,0.00,,,0.00,weatherlink.com 1.10,2013-09-17 22:50:00,
2013-09-17 16:05:00,93.6,56.0,29.44,SSW,213,7.0,7.0,28,0.00,,,0.00,weatherlink.com 1.10,2013-09-17 23:05:00,
2013-09-17 16:20:00,93.4,57.0,29.44,ESE,106,5.0,11.0,29,0.00,,,0.00,weatherlink.com 1.10,2013-09-17 23:20:00,
2013-09-17 16:35:00,93.1,57.0,29.44,SSW,205,1.0,10.0,30,0.00,,,0.00,weatherlink.com 1.10,2013-09-17 23:35:00,
2013-09-17 16:50:00,92.8,55.0,29.43,WSW,240,2.0,11.0,28,0.00,,,0.00,weatherlink.com 1.10,2013-09-17 23:50:00,
2013-09-17 17:05:00,92.2,57.0,29.43,WSW,254,5.0,11.0,30,0.00,,,0.00,weatherlink.com 1.10,2013-09-18 00:05:00,
2013-09-17 17:20:00,91.5,57.0,29.43,South,178,1.0,10.0,31,0.00,,,0.00,weatherlink.com 1.10,2013-09-18 00:20:00,
2013-09-17 17:35:00,90.8,55.0,29.43,SSW,198,8.0,10.0,30,0.00,,,0.00,weatherlink.com 1.10,2013-09-18 00:35:00,
2013-09-17 17:50:00,90.2,57.0,29.43,SW,222,1.0,7.0,32,0.00,,,0.00,weatherlink.com 1.10,2013-09-18 00:50:00,
2013-09-17 18:05:00,89.2,57.0,29.43,WSW,245,0.0,5.0,34,0.00,,,0.00,weatherlink.com 1.10,2013-09-18 01:05:00,
2013-09-17 18:20:00,86.9,59.0,29.42,WSW,243,0.0,2.0,39,0.00,,,0.00,weatherlink.com 1.10,2013-09-18 01:20:00,
2013-09-17 18:35:00,84.2,60.0,29.42,SSE,153,0.0,2.0,44,0.00,,,0.00,weatherlink.com 1.10,2013-09-18 01:35:00,
2013-09-17 18:50:00,81.3,60.0,29.43,SSE,153,0.0,1.0,49,0.00,,,0.00,weatherlink.com 1.10,2013-09-18 01:50:00,
2013-09-17 19:05:00,78.5,61.0,29.43,SSE,153,0.0,1.0,56,0.00,,,0.00,weatherlink.com 1.10,2013-09-18 02:05:00,
2013-09-17 19:20:00,76.3,61.0,29.43,SSE,153,0.0,1.0,60,0.00,,,0.00,weatherlink.com 1.10,2013-09-18 02:20:00,
2013-09-17 19:35:00,74.5,62.0,29.44,SSE,153,0.0,1.0,65,0.00,,,0.00,weatherlink.com 1.10,2013-09-18 02:35:00,
2013-09-17 19:50:00,73.0,62.0,29.44,SSE,153,0.0,0.0,69,0.00,,,0.00,weatherlink.com 1.10,2013-09-18 02:50:00,
2013-09-17 20:05:00,71.7,62.0,29.45,SSE,153,0.0,1.0,72,0.00,,,0.00,weatherlink.com 1.10,2013-09-18 03:05:00,
2013-09-17 20:20:00,70.5,62.0,29.45,SSW,195,0.0,1.0,75,0.00,,,0.00,weatherlink.com 1.10,2013-09-18 03:20:00,
2013-09-17 20:35:00,69.5,62.0,29.45,SW,230,0.0,1.0,78,0.00,,,0.00,weatherlink.com 1.10,2013-09-18 03:35:00,
2013-09-17 20:50:00,68.8,62.0,29.46,SW,230,0.0,0.0,79,0.00,,,0.00,weatherlink.com 1.10,2013-09-18 03:50:00,
2013-09-17 21:05:00,68.1,62.0,29.46,SW,230,0.0,0.0,81,0.00,,,0.00,weatherlink.com 1.10,2013-09-18 04:05:00,
2013-09-17 21:20:00,67.5,62.0,29.47,SW,230,0.0,1.0,83,0.00,,,0.00,weatherlink.com 1.10,2013-09-18 04:20:00,
2013-09-17 21:35:00,67.0,62.0,29.47,SW,230,0.0,0.0,84,0.00,,,0.00,weatherlink.com 1.10,2013-09-18 04:35:00,
2013-09-17 21:50:00,66.6,62.0,29.47,SW,230,0.0,0.0,85,0.00,,,0.00,weatherlink.com 1.10,2013-09-18 04:50:00,
2013-09-17 22:05:00,66.1,62.0,29.47,SW,230,0.0,0.0,86,0.00,,,0.00,weatherlink.com 1.10,2013-09-18 05:05:00,
2013-09-17 22:20:00,65.6,62.0,29.47,SW,228,1.0,2.0,87,0.00,,,0.00,weatherlink.com 1.10,2013-09-18 05:20:00,
2013-09-17 22:35:00,65.2,62.0,29.47,SSW,195,0.0,0.0,88,0.00,,,0.00,weatherlink.com 1.10,2013-09-18 05:35:00,
2013-09-17 22:50:00,64.8,61.0,29.48,SSW,195,0.0,0.0,88,0.00,,,0.00,weatherlink.com 1.10,2013-09-18 05:50:00,
2013-09-17 23:05:00,64.5,61.0,29.48,SW,229,0.0,0.0,89,0.00,,,0.00,weatherlink.com 1.10,2013-09-18 06:05:00,
2013-09-17 23:20:00,64.2,61.0,29.48,SW,229,0.0,0.0,90,0.00,,,0.00,weatherlink.com 1.10,2013-09-18 06:20:00,
2013-09-17 23:35:00,63.8,61.0,29.48,SW,229,0.0,0.0,90,0.00,,,0.00,weatherlink.com 1.10,2013-09-18 06:35:00,
2013-09-17 23:50:00,63.5,61.0,29.48,SW,229,0.0,1.0,91,0.00,,,0.00,weatherlink.com 1.10,2013-09-18 06:50:00,